sensor_id;sensor_type;location;lat;lon;timestamp;pressure;altitude;pressure_sealevel;temperature;humidity
75051;BME280;63628;47.656;11.310;2024-02-26T00:01:50;93069.38;;;4.24;69.06
75051;BME280;63628;47.656;11.310;2024-02-26T00:04:16;93063.66;;;4.27;63.66
75051;BME280;63628;47.656;11.310;2024-02-26T00:06:43;93062.63;;;6.21;68.20
75051;BME280;63628;47.656;11.310;2024-02-26T00:09:10;93053.50;;;4.47;59.34
75051;BME280;63628;47.656;11.310;2024-02-26T00:11:37;93055.41;;;6.07;71.69
75051;BME280;63628;47.656;11.310;2024-02-26T00:14:04;93049.63;;;4.84;61.18
75051;BME280;63628;47.656;11.310;2024-02-26T00:16:31;93049.34;;;4.63;69.76
75051;BME280;63628;47.656;11.310;2024-02-26T00:18:59;93045.69;;;3.74;61.94
75051;BME280;63628;47.656;11.310;2024-02-26T00:21:28;93055.53;;;4.57;64.96
75051;BME280;63628;47.656;11.310;2024-02-26T00:23:54;93052.69;;;5.80;63.70
75051;BME280;63628;47.656;11.310;2024-02-26T00:26:21;93031.50;;;6.08;57.15
75051;BME280;63628;47.656;11.310;2024-02-26T00:28:48;93035.47;;;6.11;63.64
75051;BME280;63628;47.656;11.310;2024-02-26T00:31:14;93033.94;;;6.47;51.66
75051;BME280;63628;47.656;11.310;2024-02-26T00:33:41;93028.19;;;6.50;50.82
75051;BME280;63628;47.656;11.310;2024-02-26T00:36:09;93031.88;;;6.49;70.21
75051;BME280;63628;47.656;11.310;2024-02-26T00:38:36;93027.91;;;6.46;67.26
75051;BME280;63628;47.656;11.310;2024-02-26T00:41:03;93054.00;;;6.26;65.53
75051;BME280;63628;47.656;11.310;2024-02-26T00:43:30;93047.28;;;6.40;69.14
75051;BME280;63628;47.656;11.310;2024-02-26T00:45:56;93059.13;;;6.43;67.82
75051;BME280;63628;47.656;11.310;2024-02-26T00:48:23;93054.47;;;6.50;71.90
75051;BME280;63628;47.656;11.310;2024-02-26T00:50:52;93043.88;;;6.40;48.63
75051;BME280;63628;47.656;11.310;2024-02-26T00:53:20;93043.03;;;7.45;44.43
75051;BME280;63628;47.656;11.310;2024-02-26T00:55:47;93039.38;;;6.67;65.93
75051;BME280;63628;47.656;11.310;2024-02-26T00:58:13;93045.13;;;6.59;67.29
75051;BME280;63628;47.656;11.310;2024-02-26T01:00:40;93029.91;;;7.55;47.52
75051;BME280;63628;47.656;11.310;2024-02-26T01:03:07;93028.63;;;7.11;45.50
75051;BME280;63628;47.656;11.310;2024-02-26T01:05:34;93028.13;;;6.72;63.82
75051;BME280;63628;47.656;11.310;2024-02-26T01:08:00;93022.25;;;6.59;64.56
75051;BME280;63628;47.656;11.310;2024-02-26T01:10:29;93027.91;;;6.78;63.86
75051;BME280;63628;47.656;11.310;2024-02-26T01:12:55;93031.41;;;6.94;59.81
75051;BME280;63628;47.656;11.310;2024-02-26T01:15:22;93040.22;;;6.73;52.97
75051;BME280;63628;47.656;11.310;2024-02-26T01:17:50;93032.34;;;6.73;56.68
75051;BME280;63628;47.656;11.310;2024-02-26T01:20:17;93036.72;;;7.46;48.52
75051;BME280;63628;47.656;11.310;2024-02-26T01:22:44;93032.59;;;7.13;47.29
75051;BME280;63628;47.656;11.310;2024-02-26T01:25:12;93034.78;;;6.84;62.53
75051;BME280;63628;47.656;11.310;2024-02-26T01:27:40;93036.22;;;6.65;67.78
75051;BME280;63628;47.656;11.310;2024-02-26T01:30:10;93035.19;;;6.66;54.08
75051;BME280;63628;47.656;11.310;2024-02-26T01:32:37;93028.13;;;7.14;55.82
75051;BME280;63628;47.656;11.310;2024-02-26T01:35:04;93036.00;;;6.72;66.43
75051;BME280;63628;47.656;11.310;2024-02-26T01:37:31;93030.94;;;6.60;48.68
75051;BME280;63628;47.656;11.310;2024-02-26T01:39:58;93019.28;;;6.51;49.08
75051;BME280;63628;47.656;11.310;2024-02-26T01:42:25;93017.66;;;6.45;50.26
75051;BME280;63628;47.656;11.310;2024-02-26T01:44:53;93017.28;;;7.05;54.42
75051;BME280;63628;47.656;11.310;2024-02-26T01:47:20;93025.19;;;7.05;57.31
75051;BME280;63628;47.656;11.310;2024-02-26T01:49:47;93009.16;;;7.07;48.86
75051;BME280;63628;47.656;11.310;2024-02-26T01:52:14;93019.34;;;6.98;57.50
75051;BME280;63628;47.656;11.310;2024-02-26T01:54:42;93023.47;;;6.84;60.28
75051;BME280;63628;47.656;11.310;2024-02-26T01:57:12;93018.38;;;6.67;66.39
75051;BME280;63628;47.656;11.310;2024-02-26T01:59:39;93018.38;;;6.67;52.11
75051;BME280;63628;47.656;11.310;2024-02-26T02:02:08;93005.41;;;6.97;50.30
75051;BME280;63628;47.656;11.310;2024-02-26T02:04:36;93010.41;;;6.99;49.04
75051;BME280;63628;47.656;11.310;2024-02-26T02:07:04;92998.56;;;7.49;49.64
75051;BME280;63628;47.656;11.310;2024-02-26T02:09:31;93004.94;;;7.06;57.09
75051;BME280;63628;47.656;11.310;2024-02-26T02:11:59;93000.28;;;6.76;59.65
75051;BME280;63628;47.656;11.310;2024-02-26T02:14:26;93002.56;;;7.61;44.03
75051;BME280;63628;47.656;11.310;2024-02-26T02:16:53;92997.84;;;7.63;44.27
75051;BME280;63628;47.656;11.310;2024-02-26T02:19:21;92994.53;;;7.26;53.88
75051;BME280;63628;47.656;11.310;2024-02-26T02:21:49;93004.47;;;6.72;65.45
75051;BME280;63628;47.656;11.310;2024-02-26T02:24:16;92991.28;;;7.14;50.18
75051;BME280;63628;47.656;11.310;2024-02-26T02:26:42;93001.59;;;6.73;58.61
75051;BME280;63628;47.656;11.310;2024-02-26T02:29:09;93002.06;;;6.65;67.12
75051;BME280;63628;47.656;11.310;2024-02-26T02:31:37;92990.78;;;7.79;43.91
75051;BME280;63628;47.656;11.310;2024-02-26T02:34:04;92995.47;;;7.10;58.68
75051;BME280;63628;47.656;11.310;2024-02-26T02:36:32;92996.00;;;7.07;55.89
75051;BME280;63628;47.656;11.310;2024-02-26T02:39:00;92994.06;;;6.92;56.07
75051;BME280;63628;47.656;11.310;2024-02-26T02:41:27;92991.56;;;7.12;47.66
75051;BME280;63628;47.656;11.310;2024-02-26T02:43:56;92989.00;;;7.22;53.60
75051;BME280;63628;47.656;11.310;2024-02-26T02:46:23;92995.97;;;7.02;51.71
75051;BME280;63628;47.656;11.310;2024-02-26T02:48:49;92982.06;;;7.11;56.85
75051;BME280;63628;47.656;11.310;2024-02-26T02:51:16;92990.50;;;7.13;55.01
75051;BME280;63628;47.656;11.310;2024-02-26T02:53:43;92984.59;;;7.38;48.34
75051;BME280;63628;47.656;11.310;2024-02-26T02:56:11;92989.41;;;7.04;51.11
75051;BME280;63628;47.656;11.310;2024-02-26T02:58:38;92981.72;;;6.92;61.53
75051;BME280;63628;47.656;11.310;2024-02-26T03:01:05;92989.19;;;6.68;59.28
75051;BME280;63628;47.656;11.310;2024-02-26T03:03:32;92984.19;;;6.67;66.96
75051;BME280;63628;47.656;11.310;2024-02-26T03:05:58;92986.66;;;6.84;57.88
75051;BME280;63628;47.656;11.310;2024-02-26T03:08:25;92984.28;;;7.24;49.31
75051;BME280;63628;47.656;11.310;2024-02-26T03:10:52;92989.09;;;6.95;62.98
75051;BME280;63628;47.656;11.310;2024-02-26T03:13:21;92981.53;;;7.72;48.34
75051;BME280;63628;47.656;11.310;2024-02-26T03:15:47;92985.13;;;7.40;48.84
75051;BME280;63628;47.656;11.310;2024-02-26T03:18:14;92984.00;;;6.79;57.02
75051;BME280;63628;47.656;11.310;2024-02-26T03:20:41;92976.50;;;6.97;61.96
75051;BME280;63628;47.656;11.310;2024-02-26T03:23:08;92970.31;;;7.19;54.25
75051;BME280;63628;47.656;11.310;2024-02-26T03:25:38;92980.41;;;6.95;60.16
75051;BME280;63628;47.656;11.310;2024-02-26T03:28:05;92967.09;;;7.12;60.52
75051;BME280;63628;47.656;11.310;2024-02-26T03:30:33;92974.88;;;6.91;59.46
75051;BME280;63628;47.656;11.310;2024-02-26T03:33:01;92971.25;;;7.03;54.66
75051;BME280;63628;47.656;11.310;2024-02-26T03:35:27;92974.00;;;6.76;65.04
75051;BME280;63628;47.656;11.310;2024-02-26T03:37:54;92974.44;;;7.10;53.86
75051;BME280;63628;47.656;11.310;2024-02-26T03:40:21;92974.13;;;7.53;46.42
75051;BME280;63628;47.656;11.310;2024-02-26T03:42:47;92974.34;;;7.42;47.29
75051;BME280;63628;47.656;11.310;2024-02-26T03:45:14;92976.84;;;7.84;43.71
75051;BME280;63628;47.656;11.310;2024-02-26T03:47:42;92968.88;;;7.69;50.82
75051;BME280;63628;47.656;11.310;2024-02-26T03:50:09;92967.81;;;7.54;51.77
75051;BME280;63628;47.656;11.310;2024-02-26T03:52:36;92961.00;;;7.69;43.51
75051;BME280;63628;47.656;11.310;2024-02-26T03:55:03;92969.38;;;7.55;49.98
75051;BME280;63628;47.656;11.310;2024-02-26T03:57:30;92970.38;;;7.34;50.13
75051;BME280;63628;47.656;11.310;2024-02-26T03:59:57;92963.06;;;6.94;51.64
75051;BME280;63628;47.656;11.310;2024-02-26T04:02:23;92966.97;;;6.86;51.84
75051;BME280;63628;47.656;11.310;2024-02-26T04:04:53;92965.06;;;6.77;58.03
75051;BME280;63628;47.656;11.310;2024-02-26T04:07:19;92977.50;;;6.17;56.55
75051;BME280;63628;47.656;11.310;2024-02-26T04:09:46;92970.09;;;6.46;63.94
75051;BME280;63628;47.656;11.310;2024-02-26T04:12:13;92977.28;;;5.70;53.89
75051;BME280;63628;47.656;11.310;2024-02-26T04:14:41;92969.16;;;6.25;62.89
75051;BME280;63628;47.656;11.310;2024-02-26T04:17:08;92974.13;;;6.54;67.21
75051;BME280;63628;47.656;11.310;2024-02-26T04:19:34;92970.13;;;5.87;55.77
75051;BME280;63628;47.656;11.310;2024-02-26T04:22:03;92967.63;;;5.97;64.62
75051;BME280;63628;47.656;11.310;2024-02-26T04:24:30;92969.03;;;6.42;66.61
75051;BME280;63628;47.656;11.310;2024-02-26T04:26:56;92970.25;;;5.27;58.62
75051;BME280;63628;47.656;11.310;2024-02-26T04:29:23;92964.81;;;4.90;61.93
75051;BME280;63628;47.656;11.310;2024-02-26T04:31:50;92967.47;;;5.60;68.32
75051;BME280;63628;47.656;11.310;2024-02-26T04:34:16;92962.19;;;6.41;69.71
75051;BME280;63628;47.656;11.310;2024-02-26T04:36:43;92965.47;;;5.46;62.23
75051;BME280;63628;47.656;11.310;2024-02-26T04:39:11;92970.03;;;6.36;67.42
75051;BME280;63628;47.656;11.310;2024-02-26T04:41:38;92966.75;;;6.19;60.31
75051;BME280;63628;47.656;11.310;2024-02-26T04:44:05;92961.56;;;4.27;59.67
75051;BME280;63628;47.656;11.310;2024-02-26T04:46:31;92960.56;;;6.03;69.46
75051;BME280;63628;47.656;11.310;2024-02-26T04:48:58;92968.47;;;5.54;57.30
75051;BME280;63628;47.656;11.310;2024-02-26T04:51:25;92962.16;;;6.04;69.13
75051;BME280;63628;47.656;11.310;2024-02-26T04:53:52;92962.75;;;6.48;69.95
75051;BME280;63628;47.656;11.310;2024-02-26T04:56:21;92973.94;;;6.33;65.59
75051;BME280;63628;47.656;11.310;2024-02-26T04:58:48;92974.16;;;5.95;69.98
75051;BME280;63628;47.656;11.310;2024-02-26T05:01:15;92975.22;;;5.23;58.49
75051;BME280;63628;47.656;11.310;2024-02-26T05:03:43;92973.22;;;5.84;70.35
75051;BME280;63628;47.656;11.310;2024-02-26T05:06:10;92972.72;;;6.09;69.36
75051;BME280;63628;47.656;11.310;2024-02-26T05:08:37;92979.03;;;6.45;70.92
75051;BME280;63628;47.656;11.310;2024-02-26T05:11:05;92990.81;;;5.35;58.39
75051;BME280;63628;47.656;11.310;2024-02-26T05:13:33;92984.00;;;6.10;70.32
75051;BME280;63628;47.656;11.310;2024-02-26T05:16:00;92987.13;;;5.85;70.36
75051;BME280;63628;47.656;11.310;2024-02-26T05:18:27;92999.19;;;5.15;59.47
75051;BME280;63628;47.656;11.310;2024-02-26T05:20:54;92995.16;;;5.07;60.74
75051;BME280;63628;47.656;11.310;2024-02-26T05:23:21;92999.09;;;6.24;70.63
75051;BME280;63628;47.656;11.310;2024-02-26T05:25:49;93002.72;;;5.04;65.61
75051;BME280;63628;47.656;11.310;2024-02-26T05:28:16;93002.59;;;4.94;71.42
75051;BME280;63628;47.656;11.310;2024-02-26T05:30:44;93008.63;;;5.33;72.32
75051;BME280;63628;47.656;11.310;2024-02-26T05:33:11;93010.38;;;5.93;71.12
75051;BME280;63628;47.656;11.310;2024-02-26T05:35:41;93009.97;;;4.58;61.03
75051;BME280;63628;47.656;11.310;2024-02-26T05:38:08;93003.28;;;5.93;70.10
75051;BME280;63628;47.656;11.310;2024-02-26T05:40:34;93006.78;;;5.82;66.81
75051;BME280;63628;47.656;11.310;2024-02-26T05:43:01;92993.59;;;6.26;57.24
75051;BME280;63628;47.656;11.310;2024-02-26T05:45:28;92998.38;;;6.34;59.15
75051;BME280;63628;47.656;11.310;2024-02-26T05:47:56;93000.00;;;6.08;59.73
75051;BME280;63628;47.656;11.310;2024-02-26T05:50:23;92999.00;;;6.46;57.99
75051;BME280;63628;47.656;11.310;2024-02-26T05:52:49;93001.00;;;6.02;58.41
75051;BME280;63628;47.656;11.310;2024-02-26T05:55:16;93001.25;;;6.32;69.54
75051;BME280;63628;47.656;11.310;2024-02-26T05:57:42;93004.31;;;6.88;58.24
75051;BME280;63628;47.656;11.310;2024-02-26T06:00:10;93003.19;;;6.42;68.84
75051;BME280;63628;47.656;11.310;2024-02-26T06:02:41;93003.31;;;6.25;64.02
75051;BME280;63628;47.656;11.310;2024-02-26T06:05:09;93015.56;;;6.47;53.63
75051;BME280;63628;47.656;11.310;2024-02-26T06:07:36;93017.59;;;6.40;68.24
75051;BME280;63628;47.656;11.310;2024-02-26T06:10:03;93016.09;;;6.17;67.39
75051;BME280;63628;47.656;11.310;2024-02-26T06:12:31;93017.31;;;6.36;70.00
75051;BME280;63628;47.656;11.310;2024-02-26T06:14:58;93024.41;;;6.35;65.71
75051;BME280;63628;47.656;11.310;2024-02-26T06:17:27;93034.56;;;6.27;67.96
75051;BME280;63628;47.656;11.310;2024-02-26T06:19:54;93028.06;;;6.02;59.28
75051;BME280;63628;47.656;11.310;2024-02-26T06:22:22;93036.22;;;5.84;63.65
75051;BME280;63628;47.656;11.310;2024-02-26T06:24:49;93044.59;;;6.30;70.31
75051;BME280;63628;47.656;11.310;2024-02-26T06:27:16;93060.88;;;6.32;70.89
75051;BME280;63628;47.656;11.310;2024-02-26T06:29:43;93048.00;;;6.30;69.12
75051;BME280;63628;47.656;11.310;2024-02-26T06:32:09;93051.47;;;6.09;58.12
75051;BME280;63628;47.656;11.310;2024-02-26T06:34:36;93056.56;;;6.21;68.73
75051;BME280;63628;47.656;11.310;2024-02-26T06:37:05;93062.97;;;6.30;69.92
75051;BME280;63628;47.656;11.310;2024-02-26T06:39:33;93064.72;;;6.19;60.92
75051;BME280;63628;47.656;11.310;2024-02-26T06:42:00;93062.91;;;6.25;68.71
75051;BME280;63628;47.656;11.310;2024-02-26T06:44:28;93070.34;;;6.33;66.26
75051;BME280;63628;47.656;11.310;2024-02-26T06:47:01;93070.28;;;5.19;63.98
75051;BME280;63628;47.656;11.310;2024-02-26T06:49:28;93072.06;;;5.13;65.37
75051;BME280;63628;47.656;11.310;2024-02-26T06:51:55;93069.56;;;6.06;70.89
75051;BME280;63628;47.656;11.310;2024-02-26T06:54:22;93081.69;;;6.12;65.82
75051;BME280;63628;47.656;11.310;2024-02-26T06:56:50;93082.75;;;6.11;58.00
75051;BME280;63628;47.656;11.310;2024-02-26T06:59:17;93077.50;;;6.11;64.08
75051;BME280;63628;47.656;11.310;2024-02-26T07:01:44;93081.84;;;6.27;68.78
75051;BME280;63628;47.656;11.310;2024-02-26T07:04:10;93079.78;;;6.29;58.80
75051;BME280;63628;47.656;11.310;2024-02-26T07:06:37;93078.44;;;5.83;62.76
75051;BME280;63628;47.656;11.310;2024-02-26T07:09:04;93088.38;;;5.97;63.79
75051;BME280;63628;47.656;11.310;2024-02-26T07:11:31;93081.16;;;6.63;64.18
75051;BME280;63628;47.656;11.310;2024-02-26T07:13:59;93080.31;;;6.58;63.77
75051;BME280;63628;47.656;11.310;2024-02-26T07:16:27;93088.34;;;6.46;65.75
75051;BME280;63628;47.656;11.310;2024-02-26T07:18:54;93088.44;;;6.56;65.43
75051;BME280;63628;47.656;11.310;2024-02-26T07:21:21;93088.59;;;6.45;69.18
75051;BME280;63628;47.656;11.310;2024-02-26T07:23:47;93100.53;;;6.57;64.03
75051;BME280;63628;47.656;11.310;2024-02-26T07:26:14;93099.84;;;6.40;69.14
75051;BME280;63628;47.656;11.310;2024-02-26T07:28:41;93100.38;;;6.42;67.76
75051;BME280;63628;47.656;11.310;2024-02-26T07:31:09;93105.59;;;6.64;66.93
75051;BME280;63628;47.656;11.310;2024-02-26T07:33:36;93106.38;;;6.96;62.16
75051;BME280;63628;47.656;11.310;2024-02-26T07:36:03;93108.38;;;6.52;68.65
75051;BME280;63628;47.656;11.310;2024-02-26T07:38:30;93110.28;;;7.26;62.90
75051;BME280;63628;47.656;11.310;2024-02-26T07:41:08;93113.97;;;6.93;66.08
75051;BME280;63628;47.656;11.310;2024-02-26T07:43:35;93116.34;;;6.62;67.83
75051;BME280;63628;47.656;11.310;2024-02-26T07:46:02;93113.94;;;7.20;63.24
75051;BME280;63628;47.656;11.310;2024-02-26T07:48:30;93113.34;;;8.12;59.96
75051;BME280;63628;47.656;11.310;2024-02-26T07:50:57;93109.44;;;6.83;66.94
75051;BME280;63628;47.656;11.310;2024-02-26T07:53:26;93106.72;;;7.05;64.57
75051;BME280;63628;47.656;11.310;2024-02-26T07:55:53;93112.00;;;8.00;62.48
75051;BME280;63628;47.656;11.310;2024-02-26T07:58:20;93120.78;;;6.57;70.27
75051;BME280;63628;47.656;11.310;2024-02-26T08:00:46;93109.44;;;7.62;56.75
75051;BME280;63628;47.656;11.310;2024-02-26T08:03:13;93110.41;;;7.46;60.30
75051;BME280;63628;47.656;11.310;2024-02-26T08:05:44;93103.22;;;7.31;54.82
75051;BME280;63628;47.656;11.310;2024-02-26T08:08:10;93107.63;;;6.89;65.41
75051;BME280;63628;47.656;11.310;2024-02-26T08:10:37;93111.84;;;6.90;66.13
75051;BME280;63628;47.656;11.310;2024-02-26T08:13:04;93107.97;;;7.82;54.55
75051;BME280;63628;47.656;11.310;2024-02-26T08:15:35;93112.25;;;7.93;55.05
75051;BME280;63628;47.656;11.310;2024-02-26T08:18:01;93106.91;;;7.30;61.79
75051;BME280;63628;47.656;11.310;2024-02-26T08:20:30;93104.28;;;8.50;48.15
75051;BME280;63628;47.656;11.310;2024-02-26T08:22:58;93107.31;;;8.17;49.91
75051;BME280;63628;47.656;11.310;2024-02-26T08:25:25;93104.19;;;8.25;49.43
75051;BME280;63628;47.656;11.310;2024-02-26T08:27:53;93109.84;;;8.95;45.28
75051;BME280;63628;47.656;11.310;2024-02-26T08:30:19;93097.97;;;8.77;47.19
75051;BME280;63628;47.656;11.310;2024-02-26T08:32:47;93100.84;;;7.30;60.90
75051;BME280;63628;47.656;11.310;2024-02-26T08:35:18;93109.06;;;7.91;50.99
75051;BME280;63628;47.656;11.310;2024-02-26T08:37:45;93104.31;;;8.86;45.92
75051;BME280;63628;47.656;11.310;2024-02-26T08:40:14;93117.94;;;7.27;61.30
75051;BME280;63628;47.656;11.310;2024-02-26T08:42:41;93104.63;;;7.97;51.51
75051;BME280;63628;47.656;11.310;2024-02-26T08:45:09;93112.47;;;8.64;48.42
75051;BME280;63628;47.656;11.310;2024-02-26T08:47:36;93110.41;;;7.99;54.66
75051;BME280;63628;47.656;11.310;2024-02-26T08:50:03;93102.72;;;8.70;47.18
75051;BME280;63628;47.656;11.310;2024-02-26T08:52:30;93108.91;;;8.18;50.27
75051;BME280;63628;47.656;11.310;2024-02-26T08:54:57;93099.69;;;8.20;48.47
75051;BME280;63628;47.656;11.310;2024-02-26T08:57:25;93093.75;;;8.86;45.10
75051;BME280;63628;47.656;11.310;2024-02-26T08:59:55;93086.09;;;8.54;51.42
75051;BME280;63628;47.656;11.310;2024-02-26T09:02:22;93102.25;;;8.00;49.39
75051;BME280;63628;47.656;11.310;2024-02-26T09:04:49;93091.38;;;8.54;49.33
75051;BME280;63628;47.656;11.310;2024-02-26T09:07:17;93085.84;;;9.01;44.61
75051;BME280;63628;47.656;11.310;2024-02-26T09:09:44;93094.50;;;7.78;56.75
75051;BME280;63628;47.656;11.310;2024-02-26T09:12:11;93082.75;;;7.96;57.99
75051;BME280;63628;47.656;11.310;2024-02-26T09:14:39;93073.44;;;9.02;48.62
75051;BME280;63628;47.656;11.310;2024-02-26T09:17:06;93078.34;;;7.54;60.61
75051;BME280;63628;47.656;11.310;2024-02-26T09:19:34;93076.09;;;8.56;48.99
75051;BME280;63628;47.656;11.310;2024-02-26T09:22:00;93063.16;;;8.70;51.59
75051;BME280;63628;47.656;11.310;2024-02-26T09:24:27;93072.25;;;8.11;50.80
75051;BME280;63628;47.656;11.310;2024-02-26T09:26:54;93072.66;;;8.96;46.91
75051;BME280;63628;47.656;11.310;2024-02-26T09:29:21;93071.81;;;9.46;43.54
75051;BME280;63628;47.656;11.310;2024-02-26T09:31:49;93074.78;;;8.84;47.24
75051;BME280;63628;47.656;11.310;2024-02-26T09:34:16;93075.03;;;9.28;45.92
75051;BME280;63628;47.656;11.310;2024-02-26T09:36:43;93082.69;;;8.69;49.83
75051;BME280;63628;47.656;11.310;2024-02-26T09:39:10;93077.94;;;8.81;49.14
75051;BME280;63628;47.656;11.310;2024-02-26T09:41:39;93081.25;;;8.25;53.81
75051;BME280;63628;47.656;11.310;2024-02-26T09:44:06;93084.00;;;8.92;46.90
75051;BME280;63628;47.656;11.310;2024-02-26T09:46:33;93083.09;;;8.30;50.46
75051;BME280;63628;47.656;11.310;2024-02-26T09:49:01;93083.34;;;8.18;53.72
75051;BME280;63628;47.656;11.310;2024-02-26T09:51:29;93079.28;;;10.09;41.89
75051;BME280;63628;47.656;11.310;2024-02-26T09:53:59;93080.22;;;10.38;40.27
75051;BME280;63628;47.656;11.310;2024-02-26T09:56:29;93078.34;;;9.79;44.37
75051;BME280;63628;47.656;11.310;2024-02-26T09:58:57;93084.75;;;9.48;44.72
75051;BME280;63628;47.656;11.310;2024-02-26T10:01:24;93078.31;;;9.84;45.02
75051;BME280;63628;47.656;11.310;2024-02-26T10:03:55;93080.69;;;11.24;39.20
75051;BME280;63628;47.656;11.310;2024-02-26T10:06:26;93067.31;;;10.27;46.05
75051;BME280;63628;47.656;11.310;2024-02-26T10:08:55;93068.78;;;10.87;39.89
75051;BME280;63628;47.656;11.310;2024-02-26T10:11:22;93072.41;;;8.57;52.85
75051;BME280;63628;47.656;11.310;2024-02-26T10:13:50;93063.91;;;9.36;47.59
75051;BME280;63628;47.656;11.310;2024-02-26T10:16:16;93058.66;;;9.01;52.87
75051;BME280;63628;47.656;11.310;2024-02-26T10:18:47;93062.72;;;7.95;59.54
75051;BME280;63628;47.656;11.310;2024-02-26T10:21:18;93057.28;;;10.24;44.17
75051;BME280;63628;47.656;11.310;2024-02-26T10:23:46;93056.47;;;9.59;48.83
75051;BME280;63628;47.656;11.310;2024-02-26T10:26:14;93054.75;;;9.98;48.55
75051;BME280;63628;47.656;11.310;2024-02-26T10:28:43;93060.72;;;10.24;44.51
75051;BME280;63628;47.656;11.310;2024-02-26T10:31:10;93062.63;;;9.24;53.26
75051;BME280;63628;47.656;11.310;2024-02-26T10:33:38;93064.38;;;9.64;47.85
75051;BME280;63628;47.656;11.310;2024-02-26T10:36:09;93061.78;;;8.37;58.13
75051;BME280;63628;47.656;11.310;2024-02-26T10:38:37;93065.03;;;8.74;56.58
75051;BME280;63628;47.656;11.310;2024-02-26T10:41:06;93064.22;;;8.99;48.81
75051;BME280;63628;47.656;11.310;2024-02-26T10:43:33;93077.41;;;9.19;54.80
75051;BME280;63628;47.656;11.310;2024-02-26T10:45:59;93085.78;;;8.35;55.56
75051;BME280;63628;47.656;11.310;2024-02-26T10:48:26;93083.25;;;10.06;47.96
75051;BME280;63628;47.656;11.310;2024-02-26T10:50:53;93087.69;;;9.21;55.95
75051;BME280;63628;47.656;11.310;2024-02-26T10:53:21;93085.19;;;11.81;43.91
75051;BME280;63628;47.656;11.310;2024-02-26T10:55:49;93097.19;;;9.07;51.20
75051;BME280;63628;47.656;11.310;2024-02-26T10:58:20;93082.91;;;12.17;42.66
75051;BME280;63628;47.656;11.310;2024-02-26T11:00:49;93078.97;;;11.09;49.39
75051;BME280;63628;47.656;11.310;2024-02-26T11:03:18;93084.53;;;11.36;47.63
75051;BME280;63628;47.656;11.310;2024-02-26T11:05:47;93059.03;;;14.31;38.47
75051;BME280;63628;47.656;11.310;2024-02-26T11:08:15;93072.75;;;11.77;42.23
75051;BME280;63628;47.656;11.310;2024-02-26T11:10:42;93067.41;;;13.83;34.83
75051;BME280;63628;47.656;11.310;2024-02-26T11:13:12;93055.47;;;13.21;38.67
75051;BME280;63628;47.656;11.310;2024-02-26T11:15:42;93060.59;;;15.18;38.84
75051;BME280;63628;47.656;11.310;2024-02-26T11:18:10;93054.38;;;14.86;42.28
75051;BME280;63628;47.656;11.310;2024-02-26T11:20:38;93054.41;;;14.09;37.28
75051;BME280;63628;47.656;11.310;2024-02-26T11:23:06;93038.41;;;16.33;37.32
75051;BME280;63628;47.656;11.310;2024-02-26T11:25:34;93038.31;;;17.24;35.79
75051;BME280;63628;47.656;11.310;2024-02-26T11:28:05;93040.25;;;16.98;33.16
75051;BME280;63628;47.656;11.310;2024-02-26T11:30:33;93044.88;;;14.94;38.07
75051;BME280;63628;47.656;11.310;2024-02-26T11:33:04;93041.97;;;14.18;38.36
75051;BME280;63628;47.656;11.310;2024-02-26T11:35:33;93040.66;;;12.63;46.15
75051;BME280;63628;47.656;11.310;2024-02-26T11:38:00;93046.16;;;11.05;48.18
75051;BME280;63628;47.656;11.310;2024-02-26T11:40:28;93041.31;;;12.36;45.85
75051;BME280;63628;47.656;11.310;2024-02-26T11:42:54;93025.09;;;14.37;36.88
75051;BME280;63628;47.656;11.310;2024-02-26T11:45:49;93033.09;;;11.95;44.65
75051;BME280;63628;47.656;11.310;2024-02-26T11:48:23;93049.91;;;12.66;47.60
75051;BME280;63628;47.656;11.310;2024-02-26T11:50:52;93038.59;;;13.12;42.68
75051;BME280;63628;47.656;11.310;2024-02-26T11:53:20;93040.59;;;13.93;39.35
75051;BME280;63628;47.656;11.310;2024-02-26T11:55:47;93051.66;;;13.87;39.65
75051;BME280;63628;47.656;11.310;2024-02-26T11:58:14;93049.63;;;13.51;44.12
75051;BME280;63628;47.656;11.310;2024-02-26T12:00:42;93058.81;;;12.56;43.60
75051;BME280;63628;47.656;11.310;2024-02-26T12:03:09;93046.41;;;14.23;38.60
75051;BME280;63628;47.656;11.310;2024-02-26T12:05:38;93060.50;;;14.37;38.49
75051;BME280;63628;47.656;11.310;2024-02-26T12:08:07;93054.97;;;13.19;39.91
75051;BME280;63628;47.656;11.310;2024-02-26T12:10:35;93065.66;;;12.95;39.51
75051;BME280;63628;47.656;11.310;2024-02-26T12:13:05;93067.19;;;12.63;41.88
75051;BME280;63628;47.656;11.310;2024-02-26T12:15:32;93051.28;;;12.45;40.14
75051;BME280;63628;47.656;11.310;2024-02-26T12:18:02;93067.28;;;12.58;40.76
75051;BME280;63628;47.656;11.310;2024-02-26T12:20:29;93056.66;;;12.58;39.10
75051;BME280;63628;47.656;11.310;2024-02-26T12:22:57;93058.75;;;11.47;50.33
75051;BME280;63628;47.656;11.310;2024-02-26T12:25:25;93054.00;;;12.40;40.29
75051;BME280;63628;47.656;11.310;2024-02-26T12:27:55;93063.22;;;12.23;42.91
75051;BME280;63628;47.656;11.310;2024-02-26T12:30:23;93070.00;;;11.34;44.85
75051;BME280;63628;47.656;11.310;2024-02-26T12:32:50;93075.97;;;10.42;56.99
75051;BME280;63628;47.656;11.310;2024-02-26T12:35:18;93087.94;;;9.35;62.96
75051;BME280;63628;47.656;11.310;2024-02-26T12:37:46;93086.47;;;9.98;60.65
75051;BME280;63628;47.656;11.310;2024-02-26T12:40:14;93076.97;;;12.49;47.24
75051;BME280;63628;47.656;11.310;2024-02-26T12:42:41;93073.97;;;13.26;47.11
75051;BME280;63628;47.656;11.310;2024-02-26T12:45:10;93085.31;;;13.31;45.42
75051;BME280;63628;47.656;11.310;2024-02-26T12:47:38;93091.03;;;11.20;55.62
75051;BME280;63628;47.656;11.310;2024-02-26T12:50:05;93101.34;;;11.85;53.37
75051;BME280;63628;47.656;11.310;2024-02-26T12:52:37;93103.00;;;12.23;49.76
75051;BME280;63628;47.656;11.310;2024-02-26T12:55:06;93105.38;;;13.24;46.55
75051;BME280;63628;47.656;11.310;2024-02-26T12:57:38;93101.19;;;13.83;45.35
75051;BME280;63628;47.656;11.310;2024-02-26T13:00:06;93103.06;;;13.82;45.75